sensor_id;sensor_type;location;lat;lon;timestamp;pressure;altitude;pressure_sealevel;temperature;humidity
68508;BME280;55510;49.560;19.090;2022-09-17T00:03:12;95604.63;;;7.93;100.00
68508;BME280;55510;49.560;19.090;2022-09-17T00:08:13;95621.50;;;7.87;100.00
68508;BME280;55510;49.560;19.090;2022-09-17T00:13:15;95609.81;;;7.83;100.00
68508;BME280;55510;49.560;19.090;2022-09-17T00:18:15;95605.97;;;7.74;100.00
68508;BME280;55510;49.560;19.090;2022-09-17T00:23:16;95618.09;;;7.69;100.00
68508;BME280;55510;49.560;19.090;2022-09-17T00:28:17;95608.00;;;7.66;100.00
68508;BME280;55510;49.560;19.090;2022-09-17T00:33:17;95601.53;;;7.57;100.00
68508;BME280;55510;49.560;19.090;2022-09-17T00:38:19;95602.97;;;7.48;100.00
68508;BME280;55510;49.560;19.090;2022-09-17T00:48:35;95599.53;;;7.30;100.00
68508;BME280;55510;49.560;19.090;2022-09-17T00:53:36;95600.72;;;7.22;100.00
68508;BME280;55510;49.560;19.090;2022-09-17T00:58:37;95617.28;;;7.13;100.00
68508;BME280;55510;49.560;19.090;2022-09-17T01:03:38;95616.53;;;7.00;100.00
68508;BME280;55510;49.560;19.090;2022-09-17T01:08:55;95619.09;;;6.95;100.00
68508;BME280;55510;49.560;19.090;2022-09-17T01:19:41;95611.63;;;6.92;100.00
68508;BME280;55510;49.560;19.090;2022-09-17T01:24:53;95610.59;;;6.93;100.00
68508;BME280;55510;49.560;19.090;2022-09-17T01:30:29;95617.75;;;6.92;100.00
68508;BME280;55510;49.560;19.090;2022-09-17T01:40:55;95614.44;;;7.02;100.00
68508;BME280;55510;49.560;19.090;2022-09-17T01:46:06;95606.50;;;7.02;100.00
68508;BME280;55510;49.560;19.090;2022-09-17T01:51:15;95609.72;;;6.87;100.00
68508;BME280;55510;49.560;19.090;2022-09-17T01:56:21;95614.81;;;6.77;100.00
68508;BME280;55510;49.560;19.090;2022-09-17T02:01:25;95616.50;;;6.66;100.00
68508;BME280;55510;49.560;19.090;2022-09-17T02:06:32;95622.91;;;6.70;100.00
68508;BME280;55510;49.560;19.090;2022-09-17T02:11:37;95636.22;;;6.75;100.00
68508;BME280;55510;49.560;19.090;2022-09-17T02:16:48;95637.09;;;6.81;100.00
68508;BME280;55510;49.560;19.090;2022-09-17T02:32:18;95625.97;;;6.96;100.00
68508;BME280;55510;49.560;19.090;2022-09-17T02:37:18;95624.16;;;6.96;100.00
68508;BME280;55510;49.560;19.090;2022-09-17T02:42:21;95617.00;;;6.97;100.00
68508;BME280;55510;49.560;19.090;2022-09-17T03:03:42;95600.88;;;6.81;100.00
68508;BME280;55510;49.560;19.090;2022-09-17T03:08:45;95590.94;;;6.72;100.00
68508;BME280;55510;49.560;19.090;2022-09-17T03:13:46;95587.88;;;6.63;100.00
68508;BME280;55510;49.560;19.090;2022-09-17T03:18:48;95585.28;;;6.51;100.00
68508;BME280;55510;49.560;19.090;2022-09-17T03:23:49;95571.66;;;6.42;100.00
68508;BME280;55510;49.560;19.090;2022-09-17T03:28:49;95585.25;;;6.34;100.00
68508;BME280;55510;49.560;19.090;2022-09-17T03:33:50;95566.00;;;6.21;100.00
68508;BME280;55510;49.560;19.090;2022-09-17T03:38:55;95560.50;;;6.11;100.00
68508;BME280;55510;49.560;19.090;2022-09-17T03:43:56;95548.94;;;6.00;100.00
68508;BME280;55510;49.560;19.090;2022-09-17T03:48:56;95539.53;;;5.92;100.00
68508;BME280;55510;49.560;19.090;2022-09-17T03:53:57;95550.56;;;5.89;100.00
68508;BME280;55510;49.560;19.090;2022-09-17T03:58:58;95545.41;;;5.83;100.00
68508;BME280;55510;49.560;19.090;2022-09-17T04:03:59;95538.06;;;5.73;100.00
68508;BME280;55510;49.560;19.090;2022-09-17T04:09:00;95565.41;;;5.66;100.00
68508;BME280;55510;49.560;19.090;2022-09-17T04:14:03;95560.75;;;5.57;100.00
68508;BME280;55510;49.560;19.090;2022-09-17T04:19:04;95561.88;;;5.49;100.00
68508;BME280;55510;49.560;19.090;2022-09-17T04:24:04;95556.41;;;5.39;100.00
68508;BME280;55510;49.560;19.090;2022-09-17T04:29:05;95549.41;;;5.32;100.00
68508;BME280;55510;49.560;19.090;2022-09-17T04:34:06;95539.28;;;5.29;100.00
68508;BME280;55510;49.560;19.090;2022-09-17T04:39:07;95533.91;;;5.24;100.00
68508;BME280;55510;49.560;19.090;2022-09-17T04:44:08;95533.78;;;5.19;100.00
68508;BME280;55510;49.560;19.090;2022-09-17T04:49:12;95540.56;;;5.15;100.00
68508;BME280;55510;49.560;19.090;2022-09-17T04:54:12;95540.56;;;5.15;100.00
68508;BME280;55510;49.560;19.090;2022-09-17T04:59:14;95541.72;;;5.19;100.00
68508;BME280;55510;49.560;19.090;2022-09-17T05:04:14;95551.13;;;5.27;100.00
68508;BME280;55510;49.560;19.090;2022-09-17T05:09:15;95540.47;;;5.33;100.00
68508;BME280;55510;49.560;19.090;2022-09-17T05:14:16;95535.41;;;5.44;100.00
68508;BME280;55510;49.560;19.090;2022-09-17T05:19:16;95537.22;;;5.55;100.00
68508;BME280;55510;49.560;19.090;2022-09-17T05:24:18;95542.09;;;5.75;100.00
68508;BME280;55510;49.560;19.090;2022-09-17T05:29:18;95550.00;;;5.87;100.00
68508;BME280;55510;49.560;19.090;2022-09-17T05:34:19;95553.22;;;6.01;100.00
68508;BME280;55510;49.560;19.090;2022-09-17T05:39:20;95547.50;;;6.21;100.00
68508;BME280;55510;49.560;19.090;2022-09-17T05:44:24;95561.09;;;6.42;100.00
68508;BME280;55510;49.560;19.090;2022-09-17T05:49:25;95548.78;;;6.65;100.00
68508;BME280;55510;49.560;19.090;2022-09-17T05:54:26;95545.34;;;6.81;100.00
68508;BME280;55510;49.560;19.090;2022-09-17T05:59:27;95554.56;;;6.96;100.00
68508;BME280;55510;49.560;19.090;2022-09-17T06:04:27;95554.97;;;7.05;100.00
68508;BME280;55510;49.560;19.090;2022-09-17T06:09:28;95561.22;;;7.16;100.00
68508;BME280;55510;49.560;19.090;2022-09-17T06:14:32;95558.22;;;7.29;100.00
68508;BME280;55510;49.560;19.090;2022-09-17T06:19:33;95551.06;;;7.47;100.00
68508;BME280;55510;49.560;19.090;2022-09-17T06:24:34;95547.66;;;7.68;100.00
68508;BME280;55510;49.560;19.090;2022-09-17T06:29:35;95553.72;;;7.91;100.00
68508;BME280;55510;49.560;19.090;2022-09-17T06:34:35;95550.19;;;8.03;100.00
68508;BME280;55510;49.560;19.090;2022-09-17T06:39:37;95562.50;;;8.14;100.00
68508;BME280;55510;49.560;19.090;2022-09-17T06:44:37;95555.31;;;8.15;100.00
68508;BME280;55510;49.560;19.090;2022-09-17T06:49:38;95548.94;;;8.38;100.00
68508;BME280;55510;49.560;19.090;2022-09-17T06:54:39;95547.97;;;8.72;100.00
68508;BME280;55510;49.560;19.090;2022-09-17T06:59:39;95561.72;;;8.96;99.14
68508;BME280;55510;49.560;19.090;2022-09-17T07:04:42;95568.84;;;9.28;97.28
68508;BME280;55510;49.560;19.090;2022-09-17T07:09:43;95577.66;;;9.77;95.72
68508;BME280;55510;49.560;19.090;2022-09-17T07:14:43;95577.31;;;10.26;92.22
68508;BME280;55510;49.560;19.090;2022-09-17T07:19:44;95595.47;;;10.45;91.22
68508;BME280;55510;49.560;19.090;2022-09-17T07:24:45;95600.28;;;10.53;88.97
68508;BME280;55510;49.560;19.090;2022-09-17T07:29:46;95592.31;;;10.58;88.24
68508;BME280;55510;49.560;19.090;2022-09-17T07:34:46;95585.69;;;10.66;89.89
68508;BME280;55510;49.560;19.090;2022-09-17T07:39:48;95569.72;;;10.71;89.11
68508;BME280;55510;49.560;19.090;2022-09-17T07:44:50;95573.97;;;10.72;87.70
68508;BME280;55510;49.560;19.090;2022-09-17T07:49:51;95570.78;;;10.65;86.64
68508;BME280;55510;49.560;19.090;2022-09-17T07:54:51;95567.06;;;10.66;86.57
68508;BME280;55510;49.560;19.090;2022-09-17T07:59:52;95560.13;;;10.76;83.69
68508;BME280;55510;49.560;19.090;2022-09-17T08:04:53;95566.28;;;10.92;82.37
68508;BME280;55510;49.560;19.090;2022-09-17T08:09:54;95563.63;;;11.07;81.99
68508;BME280;55510;49.560;19.090;2022-09-17T08:14:55;95568.69;;;11.35;81.08
68508;BME280;55510;49.560;19.090;2022-09-17T08:19:55;95570.22;;;11.56;78.65
68508;BME280;55510;49.560;19.090;2022-09-17T08:24:56;95556.56;;;11.79;78.49
68508;BME280;55510;49.560;19.090;2022-09-17T08:29:57;95569.88;;;11.94;76.22
68508;BME280;55510;49.560;19.090;2022-09-17T08:34:57;95577.22;;;12.28;73.54
68508;BME280;55510;49.560;19.090;2022-09-17T08:39:59;95574.47;;;12.49;74.67
68508;BME280;55510;49.560;19.090;2022-09-17T08:45:02;95567.09;;;12.25;71.95
68508;BME280;55510;49.560;19.090;2022-09-17T08:50:23;95557.06;;;12.01;71.63
68508;BME280;55510;49.560;19.090;2022-09-17T08:55:39;95550.16;;;11.85;71.77
68508;BME280;55510;49.560;19.090;2022-09-17T09:06:07;95548.06;;;11.77;73.41
68508;BME280;55510;49.560;19.090;2022-09-17T09:11:17;95558.44;;;11.83;73.30
68508;BME280;55510;49.560;19.090;2022-09-17T09:16:24;95567.75;;;11.86;72.51
68508;BME280;55510;49.560;19.090;2022-09-17T09:21:28;95574.44;;;11.78;71.51
68508;BME280;55510;49.560;19.090;2022-09-17T09:26:48;95575.75;;;11.81;71.23
68508;BME280;55510;49.560;19.090;2022-09-17T09:32:20;95578.13;;;12.03;71.28
68508;BME280;55510;49.560;19.090;2022-09-17T09:37:30;95578.28;;;12.27;70.93
68508;BME280;55510;49.560;19.090;2022-09-17T09:42:34;95580.50;;;13.05;67.48
68508;BME280;55510;49.560;19.090;2022-09-17T09:48:00;95597.88;;;13.02;63.24
68508;BME280;55510;49.560;19.090;2022-09-17T09:58:38;95579.38;;;13.11;64.15
68508;BME280;55510;49.560;19.090;2022-09-17T10:03:41;95582.81;;;12.82;65.64
68508;BME280;55510;49.560;19.090;2022-09-17T10:14:25;95561.38;;;12.93;66.07
68508;BME280;55510;49.560;19.090;2022-09-17T10:19:27;95558.25;;;13.15;64.74
68508;BME280;55510;49.560;19.090;2022-09-17T10:24:30;95569.72;;;12.81;67.19
68508;BME280;55510;49.560;19.090;2022-09-17T10:29:33;95575.44;;;12.64;68.45
68508;BME280;55510;49.560;19.090;2022-09-17T10:34:34;95581.38;;;12.50;66.86
68508;BME280;55510;49.560;19.090;2022-09-17T10:39:35;95583.97;;;12.66;67.27
68508;BME280;55510;49.560;19.090;2022-09-17T10:55:14;95590.31;;;12.25;66.19
68508;BME280;55510;49.560;19.090;2022-09-17T11:00:19;95594.31;;;12.22;68.24
68508;BME280;55510;49.560;19.090;2022-09-17T11:10:29;95592.19;;;12.19;67.13
68508;BME280;55510;49.560;19.090;2022-09-17T11:15:59;95587.47;;;12.00;67.18
68508;BME280;55510;49.560;19.090;2022-09-17T11:26:36;95599.75;;;12.01;67.46
68508;BME280;55510;49.560;19.090;2022-09-17T11:37:22;95575.63;;;12.27;67.49
68508;BME280;55510;49.560;19.090;2022-09-17T11:42:30;95582.75;;;12.42;65.31
68508;BME280;55510;49.560;19.090;2022-09-17T11:47:36;95571.91;;;12.23;66.65
68508;BME280;55510;49.560;19.090;2022-09-17T11:52:46;95569.19;;;12.39;67.20
68508;BME280;55510;49.560;19.090;2022-09-17T11:57:59;95563.47;;;12.56;67.17
68508;BME280;55510;49.560;19.090;2022-09-17T12:03:15;95553.03;;;12.59;63.39
68508;BME280;55510;49.560;19.090;2022-09-17T13:01:00;95484.09;;;16.26;53.43
68508;BME280;55510;49.560;19.090;2022-09-17T13:06:18;95482.13;;;16.17;56.17
68508;BME280;55510;49.560;19.090;2022-09-17T13:16:57;95481.66;;;16.38;55.18
68508;BME280;55510;49.560;19.090;2022-09-17T13:22:06;95471.19;;;16.14;52.46
68508;BME280;55510;49.560;19.090;2022-09-17T13:27:21;95468.25;;;16.01;54.17
68508;BME280;55510;49.560;19.090;2022-09-17T13:37:34;95461.91;;;15.97;53.38
68508;BME280;55510;49.560;19.090;2022-09-17T13:42:44;95462.00;;;15.92;53.25
68508;BME280;55510;49.560;19.090;2022-09-17T13:47:55;95442.56;;;16.09;52.39
68508;BME280;55510;49.560;19.090;2022-09-17T14:13:51;95430.16;;;14.68;57.01
68508;BME280;55510;49.560;19.090;2022-09-17T14:24:21;95457.25;;;13.90;60.23
68508;BME280;55510;49.560;19.090;2022-09-17T14:34:48;95445.97;;;13.49;63.37
68508;BME280;55510;49.560;19.090;2022-09-17T14:39:51;95450.41;;;13.35;62.67
68508;BME280;55510;49.560;19.090;2022-09-17T14:45:06;95443.00;;;13.27;63.62
68508;BME280;55510;49.560;19.090;2022-09-17T14:50:21;95433.53;;;13.10;64.49
68508;BME280;55510;49.560;19.090;2022-09-17T14:55:23;95445.13;;;12.71;63.94
68508;BME280;55510;49.560;19.090;2022-09-17T15:00:34;95440.81;;;12.40;65.57
68508;BME280;55510;49.560;19.090;2022-09-17T15:05:37;95450.38;;;12.07;67.48
68508;BME280;55510;49.560;19.090;2022-09-17T15:10:58;95448.34;;;11.83;67.60
68508;BME280;55510;49.560;19.090;2022-09-17T15:16:05;95453.25;;;11.60;68.38
68508;BME280;55510;49.560;19.090;2022-09-17T15:26:34;95436.50;;;11.44;70.57
68508;BME280;55510;49.560;19.090;2022-09-17T15:31:37;95449.84;;;11.44;71.53
68508;BME280;55510;49.560;19.090;2022-09-17T15:36:38;95449.56;;;11.40;72.16
68508;BME280;55510;49.560;19.090;2022-09-17T15:41:39;95455.44;;;11.37;72.54
68508;BME280;55510;49.560;19.090;2022-09-17T15:46:41;95465.03;;;11.33;73.88
68508;BME280;55510;49.560;19.090;2022-09-17T15:51:42;95457.63;;;11.25;73.96
68508;BME280;55510;49.560;19.090;2022-09-17T15:56:56;95457.34;;;11.21;74.04
68508;BME280;55510;49.560;19.090;2022-09-17T16:02:00;95465.63;;;11.14;75.13
68508;BME280;55510;49.560;19.090;2022-09-17T16:12:22;95467.78;;;10.97;79.71
68508;BME280;55510;49.560;19.090;2022-09-17T16:22:24;95472.88;;;10.83;81.89
68508;BME280;55510;49.560;19.090;2022-09-17T16:27:29;95469.94;;;10.74;83.03
68508;BME280;55510;49.560;19.090;2022-09-17T16:32:31;95461.16;;;10.68;84.42
68508;BME280;55510;49.560;19.090;2022-09-17T16:37:31;95459.03;;;10.60;85.06
68508;BME280;55510;49.560;19.090;2022-09-17T16:42:32;95449.47;;;10.49;85.22
68508;BME280;55510;49.560;19.090;2022-09-17T16:47:36;95445.97;;;10.38;85.84
68508;BME280;55510;49.560;19.090;2022-09-17T16:52:38;95444.59;;;10.25;87.81
68508;BME280;55510;49.560;19.090;2022-09-17T16:57:39;95456.06;;;10.20;88.37
68508;BME280;55510;49.560;19.090;2022-09-17T17:02:41;95450.16;;;10.08;88.50
68508;BME280;55510;49.560;19.090;2022-09-17T17:07:43;95435.78;;;9.93;90.75
68508;BME280;55510;49.560;19.090;2022-09-17T17:12:43;95427.53;;;9.90;91.38
68508;BME280;55510;49.560;19.090;2022-09-17T17:17:44;95421.69;;;9.87;92.33
68508;BME280;55510;49.560;19.090;2022-09-17T17:22:45;95438.41;;;9.78;92.22
68508;BME280;55510;49.560;19.090;2022-09-17T17:27:45;95445.28;;;9.68;92.16
68508;BME280;55510;49.560;19.090;2022-09-17T17:32:51;95446.59;;;9.66;93.22
68508;BME280;55510;49.560;19.090;2022-09-17T17:37:52;95451.09;;;9.60;94.49
68508;BME280;55510;49.560;19.090;2022-09-17T17:42:53;95450.03;;;9.56;94.60
68508;BME280;55510;49.560;19.090;2022-09-17T17:47:54;95447.88;;;9.53;95.76
68508;BME280;55510;49.560;19.090;2022-09-17T17:52:54;95441.25;;;9.50;95.80
68508;BME280;55510;49.560;19.090;2022-09-17T17:57:57;95444.13;;;9.43;96.07
68508;BME280;55510;49.560;19.090;2022-09-17T18:02:57;95448.38;;;9.39;96.31
68508;BME280;55510;49.560;19.090;2022-09-17T18:07:58;95456.56;;;9.38;97.02
68508;BME280;55510;49.560;19.090;2022-09-17T18:12:59;95461.09;;;9.37;97.01
68508;BME280;55510;49.560;19.090;2022-09-17T18:18:00;95464.00;;;9.36;97.48
68508;BME280;55510;49.560;19.090;2022-09-17T18:23:01;95455.78;;;9.32;97.64
68508;BME280;55510;49.560;19.090;2022-09-17T18:28:02;95457.84;;;9.25;98.68
68508;BME280;55510;49.560;19.090;2022-09-17T18:33:03;95471.94;;;9.25;98.73
68508;BME280;55510;49.560;19.090;2022-09-17T18:38:03;95469.50;;;9.24;98.84
68508;BME280;55510;49.560;19.090;2022-09-17T18:43:07;95468.91;;;9.11;98.14
68508;BME280;55510;49.560;19.090;2022-09-17T18:48:08;95479.56;;;9.17;98.10
68508;BME280;55510;49.560;19.090;2022-09-17T18:53:09;95469.44;;;9.08;96.57
68508;BME280;55510;49.560;19.090;2022-09-17T18:58:09;95471.53;;;9.06;96.70
68508;BME280;55510;49.560;19.090;2022-09-17T19:03:10;95475.25;;;9.05;95.65
68508;BME280;55510;49.560;19.090;2022-09-17T19:08:13;95480.06;;;9.08;95.49
68508;BME280;55510;49.560;19.090;2022-09-17T19:13:14;95468.59;;;9.03;94.14
68508;BME280;55510;49.560;19.090;2022-09-17T19:18:15;95467.25;;;9.00;92.48
68508;BME280;55510;49.560;19.090;2022-09-17T19:23:16;95481.59;;;8.99;90.72
68508;BME280;55510;49.560;19.090;2022-09-17T19:28:17;95475.78;;;9.02;91.02
68508;BME280;55510;49.560;19.090;2022-09-17T19:33:19;95477.06;;;8.99;91.31
68508;BME280;55510;49.560;19.090;2022-09-17T19:38:24;95476.78;;;8.96;91.93
68508;BME280;55510;49.560;19.090;2022-09-17T19:43:25;95468.50;;;8.87;90.66
68508;BME280;55510;49.560;19.090;2022-09-17T19:48:26;95474.56;;;8.82;90.77
68508;BME280;55510;49.560;19.090;2022-09-17T19:53:27;95468.78;;;8.85;91.22
68508;BME280;55510;49.560;19.090;2022-09-17T19:58:28;95466.59;;;8.82;91.77
68508;BME280;55510;49.560;19.090;2022-09-17T20:03:29;95460.47;;;8.77;92.82
68508;BME280;55510;49.560;19.090;2022-09-17T20:08:31;95461.53;;;8.76;93.88
68508;BME280;55510;49.560;19.090;2022-09-17T20:13:32;95456.47;;;8.74;94.51
68508;BME280;55510;49.560;19.090;2022-09-17T20:18:34;95451.44;;;8.73;95.69
68508;BME280;55510;49.560;19.090;2022-09-17T20:23:35;95463.38;;;8.75;96.26
68508;BME280;55510;49.560;19.090;2022-09-17T20:28:36;95466.53;;;8.72;95.86
68508;BME280;55510;49.560;19.090;2022-09-17T20:33:37;95464.94;;;8.71;95.85
68508;BME280;55510;49.560;19.090;2022-09-17T20:38:39;95465.44;;;8.68;96.39
68508;BME280;55510;49.560;19.090;2022-09-17T20:43:42;95462.75;;;8.63;97.98
68508;BME280;55510;49.560;19.090;2022-09-17T20:48:43;95455.78;;;8.51;98.45
68508;BME280;55510;49.560;19.090;2022-09-17T20:53:44;95448.88;;;8.50;99.51
68508;BME280;55510;49.560;19.090;2022-09-17T20:58:51;95451.47;;;8.45;98.96
68508;BME280;55510;49.560;19.090;2022-09-17T21:03:53;95448.31;;;8.48;98.97
68508;BME280;55510;49.560;19.090;2022-09-17T21:08:54;95444.13;;;8.52;99.26
68508;BME280;55510;49.560;19.090;2022-09-17T21:13:55;95440.44;;;8.59;99.56
68508;BME280;55510;49.560;19.090;2022-09-17T21:18:57;95446.84;;;8.63;99.52
68508;BME280;55510;49.560;19.090;2022-09-17T21:24:00;95460.66;;;8.65;99.70
68508;BME280;55510;49.560;19.090;2022-09-17T21:29:01;95474.97;;;8.64;100.00
68508;BME280;55510;49.560;19.090;2022-09-17T21:34:05;95470.09;;;8.50;98.43
68508;BME280;55510;49.560;19.090;2022-09-17T21:39:10;95473.19;;;8.42;98.83
68508;BME280;55510;49.560;19.090;2022-09-17T21:44:12;95474.66;;;8.33;98.94
68508;BME280;55510;49.560;19.090;2022-09-17T21:49:13;95476.44;;;8.22;98.26
68508;BME280;55510;49.560;19.090;2022-09-17T21:54:16;95475.91;;;8.20;98.88
68508;BME280;55510;49.560;19.090;2022-09-17T21:59:17;95479.28;;;8.15;98.58
68508;BME280;55510;49.560;19.090;2022-09-17T22:04:20;95478.19;;;8.11;98.29
68508;BME280;55510;49.560;19.090;2022-09-17T22:09:23;95476.09;;;8.13;99.34
68508;BME280;55510;49.560;19.090;2022-09-17T22:14:25;95476.88;;;8.13;99.99
68508;BME280;55510;49.560;19.090;2022-09-17T22:19:25;95474.66;;;8.05;100.00
68508;BME280;55510;49.560;19.090;2022-09-17T22:24:26;95471.19;;;8.00;100.00
68508;BME280;55510;49.560;19.090;2022-09-17T22:29:27;95472.47;;;7.97;100.00
68508;BME280;55510;49.560;19.090;2022-09-17T22:34:31;95478.03;;;7.95;100.00
68508;BME280;55510;49.560;19.090;2022-09-17T22:39:32;95479.38;;;7.98;100.00
68508;BME280;55510;49.560;19.090;2022-09-17T22:44:32;95486.72;;;7.91;100.00
68508;BME280;55510;49.560;19.090;2022-09-17T22:49:33;95489.88;;;7.88;100.00
68508;BME280;55510;49.560;19.090;2022-09-17T22:54:34;95492.25;;;7.89;100.00
68508;BME280;55510;49.560;19.090;2022-09-17T22:59:34;95488.56;;;7.90;100.00
68508;BME280;55510;49.560;19.090;2022-09-17T23:04:35;95488.56;;;7.90;100.00
68508;BME280;55510;49.560;19.090;2022-09-17T23:09:36;95487.72;;;7.84;100.00
68508;BME280;55510;49.560;19.090;2022-09-17T23:14:37;95489.25;;;7.80;100.00
68508;BME280;55510;49.560;19.090;2022-09-17T23:19:38;95495.91;;;7.83;100.00
68508;BME280;55510;49.560;19.090;2022-09-17T23:24:40;95489.56;;;7.84;100.00
68508;BME280;55510;49.560;19.090;2022-09-17T23:29:40;95489.56;;;7.84;100.00
68508;BME280;55510;49.560;19.090;2022-09-17T23:34:41;95485.25;;;7.78;100.00
68508;BME280;55510;49.560;19.090;2022-09-17T23:39:42;95478.13;;;7.78;100.00
68508;BME280;55510;49.560;19.090;2022-09-17T23:44:43;95475.47;;;7.78;100.00
68508;BME280;55510;49.560;19.090;2022-09-17T23:49:43;95478.34;;;7.77;100.00
68508;BME280;55510;49.560;19.090;2022-09-17T23:54:44;95476.16;;;7.68;100.00
68508;BME280;55510;49.560;19.090;2022-09-17T23:59:45;95473.19;;;7.65;100.00
